createdAt,value
2018-11-25T00:00:00.263Z,94.13
2018-11-25T00:01:00.252Z,94.13
2018-11-25T00:02:00.237Z,94.13
2018-11-25T00:03:00.228Z,93.82
2018-11-25T00:04:00.212Z,93.93
2018-11-25T00:05:00.203Z,93.93
2018-11-25T00:06:00.189Z,94.03
2018-11-25T00:07:00.183Z,93.93
2018-11-25T00:08:00.173Z,93.30
2018-11-25T00:09:00.156Z,93.26
2018-11-25T00:10:00.146Z,94.09
2018-11-25T00:11:00.141Z,93.30
2018-11-25T00:12:00.129Z,93.41
2018-11-25T00:13:00.128Z,93.26
2018-11-25T00:14:00.101Z,93.30
2018-11-25T00:15:00.096Z,93.72
2018-11-25T00:16:00.079Z,93.41
2018-11-25T00:17:00.068Z,93.62
2018-11-25T00:18:00.057Z,93.30
2018-11-25T00:19:00.055Z,94.03
2018-11-25T00:20:00.042Z,93.51
2018-11-25T00:21:00.094Z,94.20
2018-11-25T00:22:00.017Z,94.03
2018-11-25T00:23:00.003Z,93.93
2018-11-25T00:23:59.992Z,94.13
2018-11-25T00:24:59.987Z,93.82
2018-11-25T00:25:59.980Z,94.13
2018-11-25T00:26:59.958Z,93.93
2018-11-25T00:27:59.945Z,93.72
2018-11-25T00:28:59.934Z,93.82
2018-11-25T00:29:59.934Z,93.72
2018-11-25T00:30:59.918Z,93.82
2018-11-25T00:31:59.902Z,93.72
2018-11-25T00:32:59.891Z,94.03
2018-11-25T00:33:59.878Z,94.34
2018-11-25T00:34:59.867Z,93.51
2018-11-25T00:35:59.865Z,93.93
2018-11-25T00:36:59.846Z,93.93
2018-11-25T00:37:59.839Z,93.72
2018-11-25T00:38:59.824Z,93.82
2018-11-25T00:39:59.817Z,93.82
2018-11-25T00:40:59.808Z,93.93
2018-11-25T00:41:59.792Z,93.93
2018-11-25T00:42:59.779Z,93.82
2018-11-25T00:43:59.768Z,93.88
2018-11-25T00:44:59.758Z,93.68
2018-11-25T00:45:59.749Z,93.82
2018-11-25T00:46:59.736Z,93.72
2018-11-25T00:47:59.725Z,93.72
2018-11-25T00:48:59.712Z,93.82
2018-11-25T00:49:59.708Z,93.82
2018-11-25T00:50:59.691Z,93.82
2018-11-25T00:51:59.681Z,93.82
2018-11-25T00:52:59.674Z,93.93
2018-11-25T00:53:59.658Z,93.72
2018-11-25T00:54:59.648Z,94.13
2018-11-25T00:55:59.636Z,94.13
2018-11-25T00:56:59.623Z,94.34
2018-11-25T00:57:59.616Z,94.34
2018-11-25T00:58:59.605Z,94.55
2018-11-25T00:59:59.594Z,95.07
2018-11-25T01:00:59.580Z,93.93
2018-11-25T01:01:59.569Z,94.86
2018-11-25T01:02:59.560Z,94.65
2018-11-25T01:03:59.552Z,94.59
2018-11-25T01:04:59.535Z,93.87
2018-11-25T01:05:59.524Z,94.13
2018-11-25T01:06:59.512Z,94.90
2018-11-25T01:07:59.502Z,95.32
2018-11-25T01:08:59.493Z,95.07
2018-11-25T01:09:59.515Z,93.97
2018-11-25T01:10:59.476Z,95.01
2018-11-25T01:11:59.459Z,94.07
2018-11-25T01:12:59.451Z,94.59
2018-11-25T01:13:59.437Z,95.11
2018-11-25T01:14:59.427Z,95.53
2018-11-25T01:15:59.414Z,94.80
2018-11-25T01:16:59.403Z,95.32
2018-11-25T01:17:59.395Z,95.42
2018-11-25T01:18:59.379Z,95.42
2018-11-25T01:19:59.369Z,95.32
2018-11-25T01:20:59.361Z,95.32
2018-11-25T01:21:59.347Z,95.21
2018-11-25T01:22:59.336Z,95.11
2018-11-25T01:23:59.326Z,95.32
2018-11-25T01:24:59.316Z,94.80
2018-11-25T01:25:59.308Z,95.01
2018-11-25T01:26:59.292Z,95.21
2018-11-25T01:27:59.284Z,95.32
2018-11-25T01:28:59.273Z,95.17
2018-11-25T01:29:59.258Z,95.53
2018-11-25T01:30:59.248Z,95.38
2018-11-25T01:31:59.237Z,95.32
2018-11-25T01:32:59.226Z,95.48
2018-11-25T01:33:59.214Z,95.59
2018-11-25T01:35:01.046Z,95.53
2018-11-25T01:35:59.195Z,93.93
2018-11-25T01:36:59.186Z,93.87
2018-11-25T01:37:59.175Z,93.76
2018-11-25T01:38:59.160Z,94.34
2018-11-25T01:39:59.151Z,94.34
2018-11-25T01:40:59.136Z,95.07
2018-11-25T01:41:59.127Z,94.96
2018-11-25T01:42:59.120Z,95.07
2018-11-25T01:43:59.103Z,95.17
2018-11-25T01:44:59.095Z,95.11
2018-11-25T01:45:59.081Z,95.07
2018-11-25T01:46:59.071Z,95.17
2018-11-25T01:47:59.064Z,95.07
2018-11-25T01:48:59.050Z,94.65
2018-11-25T01:49:59.038Z,95.17
2018-11-25T01:50:59.028Z,95.28
2018-11-25T01:51:59.014Z,94.03
2018-11-25T01:52:59.006Z,94.76
2018-11-25T01:53:58.995Z,94.55
2018-11-25T01:54:58.984Z,94.76
2018-11-25T01:55:58.975Z,95.17
2018-11-25T01:56:58.961Z,94.96
2018-11-25T01:57:58.949Z,94.76
2018-11-25T01:58:58.936Z,94.03
2018-11-25T01:59:58.933Z,94.03
2018-11-25T02:01:07.559Z,94.86
2018-11-25T02:02:40.961Z,94.96
2018-11-25T02:03:50.567Z,94.03
2018-11-25T02:05:22.487Z,94.55
2018-11-25T02:06:22.470Z,94.76
2018-11-25T02:08:05.512Z,94.76
2018-11-25T02:09:05.500Z,94.96
2018-11-25T02:10:05.489Z,95.28
2018-11-25T02:11:05.478Z,95.28
2018-11-25T02:12:05.519Z,95.28
2018-11-25T02:13:05.456Z,95.17
2018-11-25T02:14:05.446Z,93.82
2018-11-25T02:15:05.434Z,95.17
2018-11-25T02:16:05.423Z,95.17
2018-11-25T02:17:05.410Z,95.17
2018-11-25T02:18:05.401Z,94.86
2018-11-25T02:19:05.390Z,94.76
2018-11-25T02:20:05.377Z,94.86
2018-11-25T02:21:05.366Z,94.65
2018-11-25T02:22:05.356Z,94.45
2018-11-25T02:23:05.347Z,94.03
2018-11-25T02:24:05.334Z,94.76
2018-11-25T02:25:05.322Z,95.07
2018-11-25T02:26:05.315Z,94.03
2018-11-25T02:27:05.301Z,95.17
2018-11-25T02:28:05.301Z,95.07
2018-11-25T02:29:05.285Z,93.82
2018-11-25T02:30:05.268Z,95.28
2018-11-25T02:31:05.258Z,95.17
2018-11-25T02:32:05.244Z,93.82
2018-11-25T02:33:05.241Z,95.17
2018-11-25T02:34:05.228Z,95.03
2018-11-25T02:35:05.214Z,94.55
2018-11-25T02:36:05.205Z,93.68
2018-11-25T02:37:05.193Z,95.28
2018-11-25T02:38:05.178Z,95.48
2018-11-25T02:39:05.168Z,94.34
2018-11-25T02:40:05.165Z,95.03
2018-11-25T02:41:05.146Z,94.92
2018-11-25T02:42:05.133Z,94.92
2018-11-25T02:43:05.122Z,93.99
2018-11-25T02:44:05.112Z,94.71
2018-11-25T02:45:05.101Z,95.13
2018-11-25T02:46:05.091Z,93.78
2018-11-25T02:47:05.078Z,94.82
2018-11-25T02:48:05.073Z,93.88
2018-11-25T02:49:05.055Z,94.61
2018-11-25T02:50:05.053Z,94.51
2018-11-25T02:51:05.035Z,94.61
2018-11-25T02:52:05.031Z,94.71
2018-11-25T02:53:05.011Z,95.13
2018-11-25T02:54:05.002Z,95.03
2018-11-25T02:55:04.989Z,94.30
2018-11-25T02:56:04.982Z,94.09
2018-11-25T02:57:04.974Z,94.30
2018-11-25T02:58:04.958Z,94.30
2018-11-25T02:59:04.949Z,94.61
2018-11-25T03:00:04.933Z,94.71
2018-11-25T03:01:04.922Z,94.71
2018-11-25T03:02:04.917Z,95.13
2018-11-25T03:03:04.901Z,95.13
2018-11-25T03:04:04.896Z,95.03
2018-11-25T03:05:04.878Z,95.07
2018-11-25T03:06:04.866Z,94.92
2018-11-25T03:07:04.856Z,95.03
2018-11-25T03:08:04.847Z,95.28
2018-11-25T03:09:04.847Z,94.51
2018-11-25T03:10:04.823Z,93.93
2018-11-25T03:11:04.811Z,95.28
2018-11-25T03:12:04.802Z,95.17
2018-11-25T03:13:04.797Z,95.69
2018-11-25T03:14:04.781Z,95.38
2018-11-25T03:15:04.783Z,95.94
2018-11-25T03:16:04.759Z,95.53
2018-11-25T03:17:04.749Z,95.28
2018-11-25T03:18:04.735Z,94.86
2018-11-25T03:19:04.730Z,95.73
2018-11-25T03:20:04.722Z,95.17
2018-11-25T03:21:04.709Z,95.90
2018-11-25T03:22:04.691Z,95.28
2018-11-25T03:23:04.677Z,95.17
2018-11-25T03:24:04.669Z,95.17
2018-11-25T03:25:04.660Z,95.28
2018-11-25T03:26:04.644Z,95.07
2018-11-25T03:27:04.635Z,95.07
2018-11-25T03:28:04.623Z,95.38
2018-11-25T03:29:04.611Z,95.79
2018-11-25T03:30:04.600Z,95.28
2018-11-25T03:31:04.591Z,95.07
2018-11-25T03:32:04.578Z,95.44
2018-11-25T03:33:04.567Z,95.44
2018-11-25T03:34:04.556Z,95.03
2018-11-25T03:35:04.545Z,95.23
2018-11-25T03:36:04.536Z,94.82
2018-11-25T03:37:04.531Z,95.65
2018-11-25T03:38:04.513Z,94.82
2018-11-25T03:39:04.505Z,94.92
2018-11-25T03:40:04.494Z,95.07
2018-11-25T03:41:04.490Z,94.86
2018-11-25T03:42:04.474Z,94.82
2018-11-25T03:43:04.458Z,94.76
2018-11-25T03:44:04.447Z,94.71
2018-11-25T03:45:04.434Z,95.23
2018-11-25T03:46:04.423Z,95.13
2018-11-25T03:47:04.417Z,95.38
2018-11-25T03:48:04.403Z,95.48
2018-11-25T03:49:04.393Z,95.13
2018-11-25T03:50:04.384Z,95.17
2018-11-25T03:51:04.367Z,95.38
2018-11-25T03:52:04.357Z,94.76
2018-11-25T03:53:04.347Z,94.92
2018-11-25T03:54:04.342Z,94.96
2018-11-25T03:55:04.327Z,95.38
2018-11-25T03:56:04.312Z,94.86
2018-11-25T03:57:04.301Z,95.59
2018-11-25T03:58:04.291Z,95.07
2018-11-25T03:59:04.280Z,95.17
2018-11-25T04:00:04.269Z,95.17
2018-11-25T04:01:04.259Z,95.59
2018-11-25T04:02:04.245Z,95.73
2018-11-25T04:03:04.234Z,95.73
2018-11-25T04:04:04.226Z,96.36
2018-11-25T04:05:04.216Z,95.90
2018-11-25T04:06:04.201Z,96.04
2018-11-25T04:07:04.192Z,95.94
2018-11-25T04:08:04.179Z,96.04
2018-11-25T04:09:04.169Z,96.88
2018-11-25T04:10:04.161Z,96.78
2018-11-25T04:11:04.146Z,96.78
2018-11-25T04:12:04.135Z,96.88
2018-11-25T04:13:04.127Z,96.98
2018-11-25T04:14:04.112Z,96.78
2018-11-25T04:15:04.102Z,97.09
2018-11-25T04:16:04.092Z,96.67
2018-11-25T04:17:04.080Z,96.88
2018-11-25T04:18:04.068Z,97.09
2018-11-25T04:19:04.056Z,96.73
2018-11-25T04:20:04.047Z,96.83
2018-11-25T04:21:04.034Z,96.94
2018-11-25T04:22:04.027Z,96.62
2018-11-25T04:23:04.013Z,96.83
2018-11-25T04:24:04.003Z,96.79
2018-11-25T04:25:03.992Z,96.21
2018-11-25T04:26:03.981Z,95.86
2018-11-25T04:27:03.977Z,95.96
2018-11-25T04:28:03.963Z,95.69
2018-11-25T04:29:03.953Z,95.65
2018-11-25T04:30:03.936Z,95.65
2018-11-25T04:31:03.925Z,95.17
2018-11-25T04:32:12.556Z,95.17
2018-11-25T04:33:45.951Z,95.13
2018-11-25T04:34:45.933Z,95.13
2018-11-25T04:35:45.923Z,95.86
2018-11-25T04:36:45.911Z,95.07
2018-11-25T04:37:45.909Z,95.03
2018-11-25T04:38:45.888Z,95.17
2018-11-25T04:39:45.879Z,95.38
2018-11-25T04:40:45.868Z,95.07
2018-11-25T04:41:45.856Z,95.59
2018-11-25T04:42:45.857Z,95.48
2018-11-25T04:43:45.835Z,95.34
2018-11-25T04:44:45.825Z,95.65
2018-11-25T04:45:45.813Z,95.96
2018-11-25T04:46:45.806Z,95.48
2018-11-25T04:47:45.800Z,95.23
2018-11-25T04:48:45.778Z,95.13
2018-11-25T04:49:45.768Z,95.17
2018-11-25T04:50:45.758Z,95.13
2018-11-25T04:51:45.750Z,95.03
2018-11-25T04:52:45.740Z,95.34
2018-11-25T04:53:45.724Z,95.34
2018-11-25T04:54:45.731Z,95.34
2018-11-25T04:55:45.701Z,95.17
2018-11-25T04:56:45.704Z,96.11
2018-11-25T04:57:45.684Z,95.34
2018-11-25T04:58:45.697Z,96.42
2018-11-25T04:59:45.667Z,95.69
2018-11-25T05:00:45.647Z,96.00
2018-11-25T05:01:45.639Z,95.79
2018-11-25T05:02:45.625Z,95.90
2018-11-25T05:03:45.618Z,96.06
2018-11-25T05:04:45.608Z,95.90
2018-11-25T05:05:45.594Z,95.75
2018-11-25T05:06:45.590Z,95.59
2018-11-25T05:07:45.570Z,95.90
2018-11-25T05:08:45.560Z,95.65
2018-11-25T05:09:45.551Z,95.86
2018-11-25T05:10:45.537Z,95.23
2018-11-25T05:11:45.526Z,95.03
2018-11-25T05:12:45.526Z,95.23
2018-11-25T05:14:54.180Z,95.13
2018-11-25T05:15:54.158Z,95.34
2018-11-25T05:17:37.216Z,95.23
2018-11-25T05:18:37.203Z,96.06
2018-11-25T05:19:37.187Z,95.34
2018-11-25T05:20:37.177Z,95.44
2018-11-25T05:21:37.169Z,95.65
2018-11-25T05:22:37.155Z,95.65
2018-11-25T05:23:37.143Z,96.37
2018-11-25T05:24:37.136Z,95.65
2018-11-25T05:25:37.121Z,95.75
2018-11-25T05:26:37.114Z,95.65
2018-11-25T05:27:37.099Z,95.96
2018-11-25T05:28:37.091Z,95.69
2018-11-25T05:29:37.078Z,95.86
2018-11-25T05:30:37.066Z,95.86
2018-11-25T05:31:37.055Z,95.96
2018-11-25T05:32:37.043Z,95.75
2018-11-25T05:33:37.034Z,95.75
2018-11-25T05:34:37.023Z,95.96
2018-11-25T05:35:37.013Z,96.27
2018-11-25T05:36:37.001Z,95.65
2018-11-25T05:37:36.988Z,95.44
2018-11-25T05:38:36.979Z,95.34
2018-11-25T05:40:46.109Z,95.44
2018-11-25T05:41:46.090Z,95.54
2018-11-25T05:42:46.079Z,95.44
2018-11-25T05:43:54.702Z,95.34
2018-11-25T05:45:28.111Z,95.75
2018-11-25T05:46:28.097Z,95.75
2018-11-25T05:47:28.088Z,95.75
2018-11-25T05:48:28.071Z,96.17
2018-11-25T05:49:36.260Z,95.65
2018-11-25T05:50:29.048Z,95.65
2018-11-25T05:51:28.043Z,96.06
2018-11-25T05:52:28.031Z,95.86
2018-11-25T05:53:28.016Z,95.50
2018-11-25T05:54:28.010Z,96.06
2018-11-25T05:55:27.999Z,95.54
2018-11-25T05:56:27.988Z,95.61
2018-11-25T05:57:27.975Z,95.86
2018-11-25T05:58:27.964Z,95.65
2018-11-25T05:59:28.000Z,95.54
2018-11-25T06:00:27.940Z,95.29
2018-11-25T06:01:27.929Z,95.19
2018-11-25T06:02:27.916Z,95.09
2018-11-25T06:03:27.904Z,95.09
2018-11-25T06:04:27.903Z,95.61
2018-11-25T06:05:27.883Z,95.13
2018-11-25T06:06:27.872Z,95.50
2018-11-25T06:07:27.862Z,95.19
2018-11-25T06:08:27.850Z,95.40
2018-11-25T06:09:27.845Z,95.19
2018-11-25T06:10:27.827Z,95.19
2018-11-25T06:11:36.445Z,95.92
2018-11-25T06:13:09.871Z,95.09
2018-11-25T06:14:09.836Z,95.61
2018-11-25T06:15:09.829Z,95.09
2018-11-25T06:16:09.815Z,94.98
2018-11-25T06:17:09.805Z,94.98
2018-11-25T06:18:09.793Z,94.98
2018-11-25T06:19:09.785Z,95.19
2018-11-25T06:20:09.770Z,95.61
2018-11-25T06:21:09.761Z,94.78
2018-11-25T06:22:09.751Z,95.61
2018-11-25T06:23:09.742Z,95.61
2018-11-25T06:24:09.728Z,94.67
2018-11-25T06:25:09.741Z,94.98
2018-11-25T06:26:09.707Z,94.78
2018-11-25T06:27:09.696Z,95.09
2018-11-25T06:28:09.694Z,94.78
2018-11-25T06:29:09.676Z,94.57
2018-11-25T06:30:09.661Z,95.09
2018-11-25T06:31:09.651Z,94.98
2018-11-25T06:32:09.640Z,94.98
2018-11-25T06:33:09.629Z,94.63
2018-11-25T06:34:09.620Z,94.98
2018-11-25T06:35:09.608Z,94.63
2018-11-25T06:36:09.597Z,95.19
2018-11-25T06:37:09.585Z,95.09
2018-11-25T06:38:09.573Z,95.04
2018-11-25T06:39:09.563Z,94.67
2018-11-25T06:40:09.553Z,94.78
2018-11-25T06:41:09.540Z,94.84
2018-11-25T06:42:09.532Z,95.25
2018-11-25T06:43:09.519Z,94.73
2018-11-25T06:44:09.511Z,94.84
2018-11-25T06:45:09.497Z,94.73
2018-11-25T06:46:09.492Z,95.15
2018-11-25T06:47:09.477Z,95.25
2018-11-25T06:48:09.465Z,94.94
2018-11-25T06:49:09.454Z,95.15
2018-11-25T06:50:09.441Z,94.42
2018-11-25T06:51:09.434Z,94.01
2018-11-25T06:52:09.421Z,94.01
2018-11-25T06:53:09.412Z,94.84
2018-11-25T06:54:09.398Z,95.04
2018-11-25T06:55:09.395Z,95.36
2018-11-25T06:56:09.393Z,95.56
2018-11-25T06:57:09.368Z,95.04
2018-11-25T06:58:09.384Z,95.67
2018-11-25T06:59:09.349Z,94.68
2018-11-25T07:00:09.337Z,94.94
2018-11-25T07:01:09.324Z,95.04
2018-11-25T07:02:09.318Z,94.27
2018-11-25T07:03:09.391Z,95.10
2018-11-25T07:04:09.289Z,94.37
2018-11-25T07:05:09.280Z,94.37
2018-11-25T07:06:09.266Z,93.96
2018-11-25T07:07:09.255Z,93.96
2018-11-25T07:08:09.243Z,95.20
2018-11-25T07:09:09.916Z,95.00
2018-11-25T07:10:09.223Z,95.41
2018-11-25T07:11:09.211Z,94.89
2018-11-25T07:12:09.208Z,95.51
2018-11-25T07:13:09.194Z,94.79
2018-11-25T07:14:09.183Z,94.58
2018-11-25T07:15:09.168Z,94.06
2018-11-25T07:16:09.158Z,95.00
2018-11-25T07:17:09.163Z,94.68
2018-11-25T07:18:09.157Z,94.89
2018-11-25T07:19:09.170Z,94.06
2018-11-25T07:20:09.115Z,95.10
2018-11-25T07:21:09.103Z,95.00
2018-11-25T07:22:09.113Z,93.65
2018-11-25T07:23:09.084Z,94.89
2018-11-25T07:24:09.069Z,95.83
2018-11-25T07:25:09.059Z,95.06
2018-11-25T07:26:09.047Z,94.58
2018-11-25T07:27:09.039Z,94.68
2018-11-25T07:28:18.395Z,95.00
2018-11-25T07:29:10.012Z,95.31
2018-11-25T07:30:09.004Z,94.48
2018-11-25T07:31:08.997Z,93.65
2018-11-25T07:32:08.984Z,94.68
2018-11-25T07:33:08.986Z,93.96
2018-11-25T07:34:08.962Z,93.75
2018-11-25T07:35:08.949Z,93.60
2018-11-25T07:36:08.943Z,93.54
2018-11-25T07:37:08.928Z,94.27
2018-11-25T07:38:08.920Z,94.27
2018-11-25T07:39:08.914Z,93.85
2018-11-25T07:40:08.975Z,93.96
2018-11-25T07:41:08.913Z,94.48
2018-11-25T07:42:08.960Z,93.85
2018-11-25T07:43:08.908Z,93.85
2018-11-25T07:44:08.865Z,94.06
2018-11-25T07:45:08.854Z,93.96
2018-11-25T07:46:08.837Z,95.31
2018-11-25T07:47:08.826Z,93.75
2018-11-25T07:48:08.819Z,95.31
2018-11-25T07:49:08.807Z,93.96
2018-11-25T07:50:08.792Z,94.17
2018-11-25T07:53:00.131Z,94.79
2018-11-25T07:54:00.024Z,95.00
2018-11-25T07:55:00.015Z,95.51
2018-11-25T07:55:59.997Z,95.37
2018-11-25T07:57:00.005Z,95.47
2018-11-25T07:57:59.974Z,94.85
2018-11-25T07:58:59.968Z,95.06
2018-11-25T08:00:00.009Z,95.16
2018-11-25T08:00:59.948Z,96.51
2018-11-25T08:01:59.937Z,96.51
2018-11-25T08:02:59.917Z,96.82
2018-11-25T08:03:59.908Z,96.15
2018-11-25T08:04:59.936Z,96.88
2018-11-25T08:05:59.892Z,96.67
2018-11-25T08:06:59.874Z,96.47
2018-11-25T08:07:59.863Z,96.52
2018-11-25T08:08:59.889Z,95.49
2018-11-25T08:09:59.842Z,94.87
2018-11-25T08:10:59.830Z,94.97
2018-11-25T08:11:59.829Z,95.24
2018-11-25T08:12:59.815Z,94.76
2018-11-25T08:13:59.797Z,94.20
2018-11-25T08:14:59.794Z,93.62
2018-11-25T08:15:59.778Z,92.96
2018-11-25T08:16:59.768Z,93.21
2018-11-25T08:17:59.755Z,92.49
2018-11-25T08:18:59.749Z,92.28
2018-11-25T08:19:59.731Z,92.18
2018-11-25T08:20:59.723Z,92.49
2018-11-25T08:21:59.730Z,92.59
2018-11-25T08:22:59.698Z,92.69
2018-11-25T08:23:59.687Z,93.10
2018-11-25T08:24:59.685Z,93.31
2018-11-25T08:25:59.665Z,93.62
2018-11-25T08:26:59.653Z,92.28
2018-11-25T08:27:59.644Z,92.07
2018-11-25T08:28:59.632Z,92.24
2018-11-25T08:29:59.623Z,92.65
2018-11-25T08:30:59.610Z,93.58
2018-11-25T08:31:59.598Z,93.16
2018-11-25T08:32:59.588Z,92.49
2018-11-25T08:33:59.577Z,92.49
2018-11-25T08:34:59.565Z,91.82
2018-11-25T08:35:59.565Z,91.86
2018-11-25T08:36:59.548Z,92.44
2018-11-25T08:37:59.554Z,92.24
2018-11-25T08:38:59.522Z,92.24
2018-11-25T08:39:59.509Z,92.76
2018-11-25T08:40:59.500Z,92.65
2018-11-25T08:41:59.495Z,93.27
2018-11-25T08:42:59.478Z,93.68
2018-11-25T08:43:59.466Z,92.85
2018-11-25T08:44:59.466Z,92.24
2018-11-25T08:45:59.449Z,92.50
2018-11-25T08:46:59.435Z,91.20
2018-11-25T08:47:59.449Z,91.20
2018-11-25T08:48:59.411Z,90.78
2018-11-25T08:49:59.403Z,90.99
2018-11-25T08:50:59.401Z,91.09
2018-11-25T08:51:59.379Z,91.41
2018-11-25T08:52:59.368Z,91.57
2018-11-25T08:53:59.370Z,91.09
2018-11-25T08:54:59.346Z,90.68
2018-11-25T08:55:59.335Z,91.05
2018-11-25T08:56:59.326Z,91.05
2018-11-25T08:57:59.318Z,90.53
2018-11-25T08:58:59.325Z,90.53
2018-11-25T08:59:59.312Z,90.33
2018-11-25T09:00:59.282Z,90.33
2018-11-25T09:01:59.273Z,90.33
2018-11-25T09:02:59.258Z,90.26
2018-11-25T09:03:59.251Z,90.58
2018-11-25T09:04:59.235Z,90.68
2018-11-25T09:05:59.228Z,90.37
2018-11-25T09:06:59.213Z,90.99
2018-11-25T09:07:59.235Z,91.41
2018-11-25T09:08:59.192Z,91.30
2018-11-25T09:09:59.180Z,91.45
2018-11-25T09:10:59.171Z,91.09
2018-11-25T09:11:59.165Z,91.61
2018-11-25T09:12:59.147Z,91.66
2018-11-25T09:13:59.155Z,91.97
2018-11-25T09:14:59.126Z,91.86
2018-11-25T09:15:59.209Z,91.76
2018-11-25T09:16:59.102Z,91.86
2018-11-25T09:17:59.091Z,91.82
2018-11-25T09:18:59.088Z,92.07
2018-11-25T09:19:59.068Z,91.97
2018-11-25T09:20:59.060Z,92.34
2018-11-25T09:21:59.876Z,92.13
2018-11-25T09:22:59.036Z,92.59
2018-11-25T09:23:59.025Z,91.30
2018-11-25T09:24:59.026Z,91.41
2018-11-25T09:25:59.003Z,91.61
2018-11-25T09:26:58.991Z,91.61
2018-11-25T09:27:58.982Z,91.61
2018-11-25T09:28:58.971Z,91.72
2018-11-25T09:29:58.959Z,90.78
2018-11-25T09:30:58.956Z,91.20
2018-11-25T09:31:58.936Z,90.74
2018-11-25T09:32:58.927Z,91.30
2018-11-25T09:33:58.922Z,90.89
2018-11-25T09:34:58.908Z,90.89
2018-11-25T09:35:58.896Z,90.68
2018-11-25T09:36:58.881Z,91.20
2018-11-25T09:37:58.870Z,91.20
2018-11-25T09:38:58.859Z,91.51
2018-11-25T09:39:58.857Z,91.30
2018-11-25T09:40:59.300Z,91.41
2018-11-25T09:41:58.829Z,91.41
2018-11-25T09:42:58.990Z,90.99
2018-11-25T09:43:58.804Z,90.89
2018-11-25T09:44:58.793Z,91.30
2018-11-25T09:45:58.781Z,91.05
2018-11-25T09:46:58.792Z,91.16
2018-11-25T09:47:58.760Z,90.64
2018-11-25T09:48:58.769Z,90.74
2018-11-25T09:49:58.813Z,90.33
2018-11-25T09:50:58.729Z,90.44
2018-11-25T09:51:58.718Z,90.12
2018-11-25T09:52:58.707Z,90.44
2018-11-25T09:53:58.695Z,90.64
2018-11-25T09:54:58.683Z,90.53
2018-11-25T09:55:58.688Z,90.44
2018-11-25T09:56:58.667Z,90.44
2018-11-25T09:57:58.684Z,90.53
2018-11-25T09:58:58.649Z,91.05
2018-11-25T09:59:58.627Z,90.64
2018-11-25T10:00:58.618Z,90.84
2018-11-25T10:01:58.606Z,90.84
2018-11-25T10:02:58.597Z,90.33
2018-11-25T10:04:05.724Z,90.33
2018-11-25T10:05:40.336Z,90.44
2018-11-25T10:06:48.939Z,90.64
2018-11-25T10:08:22.349Z,91.36
2018-11-25T10:09:29.494Z,90.68
2018-11-25T10:11:04.385Z,90.84
2018-11-25T10:12:04.386Z,90.84
2018-11-25T10:13:04.349Z,90.64
2018-11-25T10:14:04.337Z,90.64
2018-11-25T10:15:04.332Z,90.33
2018-11-25T10:16:04.366Z,90.53
2018-11-25T10:17:04.305Z,90.33
2018-11-25T10:18:04.293Z,90.33
2018-11-25T10:19:04.288Z,90.23
2018-11-25T10:20:04.274Z,90.53
2018-11-25T10:21:04.263Z,90.33
2018-11-25T10:22:04.248Z,90.44
2018-11-25T10:23:04.239Z,90.44
2018-11-25T10:24:04.228Z,90.44
2018-11-25T10:25:04.216Z,90.80
2018-11-25T10:26:04.225Z,90.44
2018-11-25T10:27:04.207Z,90.29
2018-11-25T10:28:04.184Z,89.92
2018-11-25T10:29:04.175Z,90.23
2018-11-25T10:30:04.163Z,90.23
2018-11-25T10:31:04.152Z,90.53
2018-11-25T10:32:04.138Z,90.33
2018-11-25T10:33:04.133Z,90.64
2018-11-25T10:34:04.121Z,91.05
2018-11-25T10:35:04.109Z,91.05
2018-11-25T10:36:04.641Z,91.05
2018-11-25T10:37:04.083Z,91.26
2018-11-25T10:38:04.095Z,91.16
2018-11-25T10:39:04.068Z,91.36
2018-11-25T10:40:04.179Z,91.01
2018-11-25T10:41:04.039Z,91.22
2018-11-25T10:42:04.028Z,90.74
2018-11-25T10:43:04.018Z,90.80
2018-11-25T10:44:04.005Z,90.29
2018-11-25T10:45:03.993Z,90.39
2018-11-25T10:46:03.981Z,90.12
2018-11-25T10:47:03.970Z,90.29
2018-11-25T10:48:03.958Z,90.64
2018-11-25T10:49:03.949Z,90.39
2018-11-25T10:50:03.938Z,90.70
2018-11-25T10:51:03.926Z,90.80
2018-11-25T10:52:03.916Z,90.60
2018-11-25T10:53:03.905Z,90.80
2018-11-25T10:54:03.893Z,90.35
2018-11-25T10:55:03.896Z,90.39
2018-11-25T10:56:03.872Z,90.39
2018-11-25T10:57:03.863Z,90.39
2018-11-25T10:58:03.847Z,90.29
2018-11-25T10:59:03.836Z,90.14
2018-11-25T11:00:03.825Z,90.45
2018-11-25T11:01:03.820Z,90.66
2018-11-25T11:02:03.804Z,90.45
2018-11-25T11:03:03.792Z,90.60
2018-11-25T11:04:03.781Z,90.60
2018-11-25T11:05:03.770Z,90.70
2018-11-25T11:06:03.763Z,90.56
2018-11-25T11:07:03.750Z,90.66
2018-11-25T11:08:03.738Z,90.66
2018-11-25T11:09:03.725Z,90.56
2018-11-25T11:10:03.713Z,90.77
2018-11-25T11:11:03.702Z,90.56
2018-11-25T11:12:03.700Z,90.35
2018-11-25T11:13:03.714Z,90.45
2018-11-25T11:14:12.325Z,90.45
2018-11-25T11:15:34.952Z,90.50
2018-11-25T11:16:34.892Z,90.08
2018-11-25T11:17:34.883Z,90.50
2018-11-25T11:18:34.870Z,89.98
2018-11-25T11:19:34.865Z,90.56
2018-11-25T11:20:34.850Z,90.45
2018-11-25T11:21:34.835Z,90.60
2018-11-25T11:22:34.824Z,90.50
2018-11-25T11:23:34.814Z,90.45
2018-11-25T11:24:34.807Z,90.56
2018-11-25T11:25:34.790Z,90.39
2018-11-25T11:26:34.801Z,90.29
2018-11-25T11:27:34.779Z,90.35
2018-11-25T11:28:34.774Z,90.56
2018-11-25T11:29:34.749Z,90.56
2018-11-25T11:30:43.384Z,90.45
2018-11-25T11:32:16.785Z,90.60
2018-11-25T15:17:49.235Z,94.22
2018-11-25T15:18:49.216Z,93.49
2018-11-25T15:19:49.205Z,93.43
2018-11-25T15:20:49.233Z,94.12
2018-11-25T15:21:49.186Z,93.49
2018-11-25T15:22:49.182Z,94.63
2018-11-25T15:23:49.163Z,94.12
2018-11-25T15:24:49.149Z,93.60
2018-11-25T15:25:49.140Z,93.08
2018-11-25T15:26:49.129Z,93.08
2018-11-25T15:27:49.117Z,93.29
2018-11-25T15:28:49.148Z,92.67
2018-11-25T15:29:49.166Z,92.67
2018-11-25T15:30:49.147Z,92.77
2018-11-25T15:31:49.125Z,93.18
2018-11-25T15:32:49.065Z,93.29
2018-11-25T15:33:49.073Z,92.87
2018-11-25T15:34:49.041Z,92.77
2018-11-25T15:35:49.028Z,92.87
2018-11-25T15:36:49.018Z,92.67
2018-11-25T15:37:49.021Z,92.81
2018-11-25T15:38:49.008Z,92.77
2018-11-25T15:39:48.983Z,92.46
2018-11-25T15:40:48.991Z,92.77
2018-11-25T15:41:48.962Z,92.77
2018-11-25T15:42:48.955Z,92.97
2018-11-25T15:43:48.940Z,92.87
2018-11-25T15:44:48.928Z,92.87
2018-11-25T15:45:48.916Z,92.97
2018-11-25T15:46:48.941Z,92.67
2018-11-25T15:47:48.901Z,92.87
2018-11-25T15:48:48.890Z,92.87
2018-11-25T15:49:48.872Z,92.87
2018-11-25T15:50:48.881Z,92.77
2018-11-25T15:51:48.852Z,92.77
2018-11-25T15:52:48.850Z,92.57
2018-11-25T15:53:48.828Z,92.36
2018-11-25T15:54:48.818Z,92.77
2018-11-25T15:55:48.810Z,92.57
2018-11-25T15:56:48.813Z,92.67
2018-11-25T15:57:48.785Z,92.77
2018-11-25T15:58:48.771Z,93.39
2018-11-25T15:59:48.760Z,93.54
2018-11-25T16:00:48.749Z,93.54
2018-11-25T16:01:48.760Z,93.23
2018-11-25T16:02:48.739Z,92.91
2018-11-25T16:03:48.730Z,93.23
2018-11-25T16:04:48.714Z,92.71
2018-11-25T16:05:48.700Z,93.54
2018-11-25T16:06:48.686Z,93.43
2018-11-25T16:07:48.694Z,93.85
2018-11-25T16:08:48.663Z,93.64
2018-11-25T16:09:48.649Z,92.67
2018-11-25T16:10:48.646Z,93.02
2018-11-25T16:11:48.746Z,93.54
2018-11-25T16:12:48.614Z,93.12
2018-11-25T16:13:48.618Z,93.54
2018-11-25T16:14:48.594Z,93.43
2018-11-25T16:15:48.588Z,93.43
2018-11-25T16:16:48.571Z,93.39
2018-11-25T16:17:48.597Z,93.43
2018-11-25T16:18:48.589Z,93.54
2018-11-25T16:19:48.542Z,92.91
2018-11-25T16:20:48.525Z,93.12
2018-11-25T16:21:48.515Z,93.02
2018-11-25T16:22:48.506Z,93.33
2018-11-25T16:23:48.495Z,93.54
2018-11-25T16:24:48.481Z,95.77
2018-11-25T16:25:48.472Z,96.59
2018-11-25T16:26:48.461Z,96.45
2018-11-25T16:27:48.449Z,95.42
2018-11-25T16:28:48.442Z,93.55
2018-11-25T16:29:48.427Z,93.08
2018-11-25T16:30:48.414Z,92.67
2018-11-25T16:31:48.403Z,92.77
2018-11-25T16:32:48.394Z,92.77
2018-11-25T16:33:48.383Z,93.18
2018-11-25T16:34:48.382Z,92.91
2018-11-25T16:35:48.377Z,93.12
2018-11-25T16:36:48.351Z,93.23
2018-11-25T16:37:48.367Z,92.81
2018-11-25T16:38:48.332Z,93.64
2018-11-25T16:39:48.316Z,93.43
2018-11-25T16:40:48.323Z,93.43
2018-11-25T16:41:48.296Z,93.85
2018-11-25T16:42:48.281Z,93.43
2018-11-25T16:43:48.270Z,93.54
2018-11-25T16:44:48.260Z,93.74
2018-11-25T16:45:48.257Z,93.64
2018-11-25T16:46:48.245Z,93.43
2018-11-25T16:47:48.226Z,93.64
2018-11-25T16:48:48.217Z,93.64